Time;durP1;ratioP1;P1;durP2;ratioP2;P2;SDS_P1;SDS_P2;PMS_P1;PMS_P2;Temp;Humidity;BMP_temperature;BMP_pressure;BME280_temperature;BME280_humidity;BME280_pressure;Samples;Min_cycle;Max_cycle;Signal;HPM_P1;HPM_P2
2021/09/30 00:01:12;;;;;;;2.25;0.85;;;11.20;97.60;;;;;;5047476;28;20036;-86
2021/09/30 00:03:43;;;;;;;2.70;0.90;;;11.20;97.60;;;;;;5055461;28;20024;-87
2021/09/30 00:06:19;;;;;;;3.63;0.98;;;11.20;97.60;;;;;;5055742;28;20033;-86
2021/09/30 00:08:46;;;;;;;2.05;0.88;;;11.20;97.50;;;;;;5058379;28;20461;-86
2021/09/30 00:11:22;;;;;;;2.97;0.77;;;11.20;97.50;;;;;;5027850;28;20037;-86
2021/09/30 00:13:54;;;;;;;4.95;1.27;;;11.20;97.50;;;;;;5066714;28;20052;-85
2021/09/30 00:33:02;;;;;;;4.32;1.33;;;11.20;97.40;;;;;;5037322;28;20044;-89
2021/09/30 00:36:01;;;;;;;6.40;1.60;;;11.20;97.40;;;;;;5001595;28;20394;-86
2021/09/30 00:52:20;;;;;;;6.50;2.20;;;11.10;97.30;;;;;;5009757;28;20116;-87
2021/09/30 01:22:22;;;;;;;9.68;2.42;;;10.90;97.50;;;;;;5032706;28;20095;-87
2021/09/30 01:33:13;;;;;;;5.50;2.40;;;10.90;97.40;;;;;;5019384;28;20036;-89
2021/09/30 02:39:43;;;;;;;5.25;2.85;;;10.50;97.50;;;;;;5041786;28;20508;-90
2021/09/30 02:58:50;;;;;;;9.00;3.10;;;10.40;97.50;;;;;;5004216;28;20036;-90
2021/09/30 03:01:20;;;;;;;8.82;2.53;;;10.40;97.40;;;;;;4999839;28;20543;-89
2021/09/30 03:03:46;;;;;;;7.80;2.80;;;10.30;97.40;;;;;;5018714;28;20044;-89
2021/09/30 03:06:13;;;;;;;10.27;2.90;;;10.40;97.40;;;;;;4986357;28;20022;-91
2021/09/30 03:08:44;;;;;;;8.60;2.83;;;10.40;97.40;;;;;;5018759;28;20025;-90
2021/09/30 03:11:11;;;;;;;7.88;3.10;;;10.30;97.40;;;;;;4992249;28;20478;-91
2021/09/30 03:14:03;;;;;;;8.80;2.80;;;10.30;97.40;;;;;;5036926;28;20458;-89
2021/09/30 03:16:45;;;;;;;7.63;3.30;;;10.30;97.40;;;;;;5026205;28;20092;-90
2021/09/30 03:19:37;;;;;;;7.40;2.88;;;10.30;97.30;;;;;;5031578;28;20052;-89
2021/09/30 03:24:44;;;;;;;8.48;2.58;;;10.20;97.30;;;;;;5000409;28;20026;-92
2021/09/30 03:27:10;;;;;;;9.60;2.95;;;10.20;97.30;;;;;;5012327;28;20022;-90
2021/09/30 03:29:36;;;;;;;6.75;2.75;;;10.20;97.40;;;;;;4963239;28;20472;-90
2021/09/30 03:32:06;;;;;;;6.95;2.25;;;10.20;97.40;;;;;;4978190;28;20030;-89
2021/09/30 03:34:35;;;;;;;8.77;2.28;;;10.20;97.40;;;;;;4981718;28;20137;-90
2021/09/30 03:37:03;;;;;;;10.35;2.90;;;10.20;97.40;;;;;;4998362;28;20124;-90
2021/09/30 03:39:31;;;;;;;5.88;2.83;;;10.20;97.40;;;;;;5001551;28;20371;-89
2021/09/30 03:42:02;;;;;;;10.15;2.90;;;10.20;97.40;;;;;;5015025;28;20026;-90
2021/09/30 03:44:31;;;;;;;11.77;2.70;;;10.20;97.50;;;;;;4984469;28;20040;-90
2021/09/30 03:46:57;;;;;;;7.78;2.88;;;10.10;97.30;;;;;;4998454;28;20022;-89
2021/09/30 03:49:28;;;;;;;8.98;3.33;;;10.20;97.30;;;;;;4985300;28;20467;-90
2021/09/30 03:52:10;;;;;;;9.27;2.88;;;10.10;97.30;;;;;;4983285;28;20026;-90
2021/09/30 03:55:26;;;;;;;7.47;2.42;;;10.10;97.40;;;;;;4998033;28;20026;-90
2021/09/30 03:57:50;;;;;;;7.90;2.80;;;10.10;97.30;;;;;;4984589;28;20480;-90
2021/09/30 04:00:17;;;;;;;8.15;3.00;;;10.10;97.40;;;;;;4996969;28;20476;-89
2021/09/30 04:02:43;;;;;;;8.23;2.65;;;10.10;97.40;;;;;;5002265;28;20026;-90
2021/09/30 04:05:19;;;;;;;8.38;3.10;;;10.10;97.40;;;;;;4962816;28;20037;-90
2021/09/30 04:07:44;;;;;;;7.93;2.70;;;10.10;97.40;;;;;;5000275;28;20057;-90
2021/09/30 04:10:13;;;;;;;11.05;3.40;;;10.10;97.40;;;;;;5011162;28;20030;-89
2021/09/30 04:12:40;;;;;;;7.15;2.60;;;10.10;97.40;;;;;;4990849;28;20062;-89
2021/09/30 04:15:07;;;;;;;6.18;2.55;;;10.10;97.30;;;;;;4983042;28;20124;-90
2021/09/30 04:17:32;;;;;;;6.15;2.50;;;10.10;97.30;;;;;;4982207;28;20084;-90
2021/09/30 04:20:01;;;;;;;8.80;2.72;;;10.10;97.40;;;;;;4997914;28;20023;-89
2021/09/30 04:22:29;;;;;;;7.43;2.60;;;10.10;97.30;;;;;;4987546;28;20045;-89
2021/09/30 04:24:57;;;;;;;9.88;2.75;;;10.10;97.30;;;;;;5009266;28;20022;-90
2021/09/30 04:27:26;;;;;;;6.75;2.53;;;10.10;97.30;;;;;;4998504;28;20022;-89
2021/09/30 04:29:54;;;;;;;8.85;2.72;;;10.10;97.30;;;;;;5014050;28;20076;-89
2021/09/30 04:32:20;;;;;;;9.45;2.58;;;10.00;97.40;;;;;;4981807;28;20029;-90
2021/09/30 04:34:46;;;;;;;8.77;3.25;;;10.00;97.30;;;;;;4987352;28;20025;-90
2021/09/30 04:37:18;;;;;;;9.30;2.78;;;10.10;97.40;;;;;;4979666;28;20034;-89
2021/09/30 04:39:57;;;;;;;5.53;2.50;;;10.00;97.30;;;;;;4992169;28;20037;-89
2021/09/30 04:42:23;;;;;;;8.52;2.75;;;10.10;97.40;;;;;;4979378;28;20057;-89
2021/09/30 04:44:54;;;;;;;7.95;3.08;;;10.00;97.30;;;;;;5011743;28;20045;-89
2021/09/30 04:47:28;;;;;;;10.38;3.40;;;10.00;97.30;;;;;;4992947;28;20037;-89
2021/09/30 04:49:54;;;;;;;7.60;3.17;;;10.00;97.30;;;;;;4991036;28;20093;-89
2021/09/30 04:52:20;;;;;;;7.88;2.92;;;10.00;97.30;;;;;;5009250;28;20113;-89
2021/09/30 04:54:55;;;;;;;10.98;2.95;;;10.00;97.20;;;;;;4995833;28;20018;-89
2021/09/30 04:57:27;;;;;;;10.25;3.40;;;10.00;97.30;;;;;;4995745;28;20033;-88
2021/09/30 04:59:57;;;;;;;6.90;2.90;;;9.90;97.30;;;;;;4997977;28;20426;-90
2021/09/30 05:02:23;;;;;;;10.00;2.97;;;9.90;97.30;;;;;;4988746;28;20096;-90
2021/09/30 05:04:49;;;;;;;9.57;3.28;;;10.00;97.30;;;;;;5012453;28;20436;-89
2021/09/30 05:07:17;;;;;;;14.70;3.17;;;10.00;97.30;;;;;;4975406;28;20479;-89
2021/09/30 05:10:10;;;;;;;11.27;3.22;;;10.00;97.30;;;;;;4996448;28;20027;-89
2021/09/30 05:12:46;;;;;;;8.77;2.60;;;10.00;97.30;;;;;;4990420;28;20121;-89
2021/09/30 05:15:12;;;;;;;9.43;4.32;;;9.90;97.50;;;;;;5009830;28;20026;-89
2021/09/30 05:17:44;;;;;;;10.05;3.30;;;9.90;97.20;;;;;;5003739;28;20030;-87
2021/09/30 05:20:10;;;;;;;8.75;3.22;;;9.90;97.20;;;;;;4981987;28;20033;-84
2021/09/30 05:22:36;;;;;;;7.20;2.97;;;9.90;97.10;;;;;;4995924;28;20054;-88
2021/09/30 05:25:02;;;;;;;11.63;3.88;;;9.90;97.20;;;;;;4979254;28;20035;-89
2021/09/30 05:27:27;;;;;;;11.68;3.42;;;9.90;97.10;;;;;;4999476;28;20040;-89
2021/09/30 05:30:02;;;;;;;7.93;3.33;;;9.90;97.10;;;;;;4985268;28;20022;-88
2021/09/30 05:32:31;;;;;;;7.13;3.72;;;9.80;97.10;;;;;;5015927;28;20026;-88
2021/09/30 05:35:02;;;;;;;10.68;3.50;;;9.80;97.10;;;;;;4994152;28;20037;-89
2021/09/30 05:37:30;;;;;;;9.70;2.97;;;9.80;97.20;;;;;;5007285;28;20394;-88
2021/09/30 05:40:01;;;;;;;10.20;3.55;;;9.80;97.20;;;;;;5001098;28;20502;-88
2021/09/30 05:42:30;;;;;;;10.52;3.53;;;9.80;97.10;;;;;;5015235;28;20034;-88
2021/09/30 05:44:59;;;;;;;8.98;3.38;;;9.80;97.10;;;;;;4983679;28;20025;-88
2021/09/30 05:47:25;;;;;;;7.82;3.25;;;9.80;97.10;;;;;;4992311;28;20034;-88
2021/09/30 05:49:57;;;;;;;7.10;3.10;;;9.80;97.10;;;;;;5016275;28;20526;-88
2021/09/30 05:52:25;;;;;;;8.20;3.05;;;9.80;97.10;;;;;;5015945;28;20034;-88
2021/09/30 05:54:54;;;;;;;8.80;3.63;;;9.80;97.10;;;;;;4999225;28;20025;-88
2021/09/30 05:57:25;;;;;;;8.35;3.70;;;9.70;97.00;;;;;;5015806;28;20029;-88
2021/09/30 05:59:51;;;;;;;7.25;2.83;;;9.70;97.20;;;;;;4999203;28;20041;-88
2021/09/30 06:10:13;;;;;;;9.02;3.55;;;9.70;97.20;;;;;;5006581;28;20030;-87
2021/09/30 06:12:46;;;;;;;11.23;4.45;;;9.70;97.10;;;;;;5016218;28;20052;-87
2021/09/30 06:15:22;;;;;;;10.75;3.08;;;9.70;97.20;;;;;;4997197;28;20034;-88
2021/09/30 06:17:55;;;;;;;6.18;3.20;;;9.70;97.20;;;;;;4999941;28;20030;-88
2021/09/30 06:20:27;;;;;;;10.70;4.07;;;9.70;97.20;;;;;;5000190;28;20053;-88
2021/09/30 06:22:53;;;;;;;8.55;3.15;;;9.70;97.30;;;;;;5019695;23;20274;-88
2021/09/30 06:25:22;;;;;;;9.13;3.17;;;9.70;97.30;;;;;;5044828;28;20026;-88
2021/09/30 06:27:48;;;;;;;9.68;3.50;;;9.80;97.30;;;;;;5016116;28;20027;-88
2021/09/30 06:30:15;;;;;;;8.13;3.00;;;9.80;97.30;;;;;;5016308;28;20468;-88
2021/09/30 06:33:06;;;;;;;10.75;3.58;;;9.80;97.30;;;;;;5015863;28;20510;-88
2021/09/30 06:35:32;;;;;;;7.70;2.92;;;9.80;97.20;;;;;;5032139;28;20030;-88
2021/09/30 06:37:58;;;;;;;9.13;2.85;;;9.80;97.20;;;;;;5015676;28;20024;-88
2021/09/30 06:40:45;;;;;;;9.30;3.17;;;9.80;97.30;;;;;;5015538;28;20022;-88
2021/09/30 06:43:15;;;;;;;7.47;2.40;;;9.90;97.30;;;;;;5015239;28;20437;-87
2021/09/30 06:45:41;;;;;;;7.45;2.78;;;9.90;97.30;;;;;;5015391;28;20022;-88
2021/09/30 06:48:09;;;;;;;9.52;3.10;;;9.90;97.30;;;;;;5015139;28;20029;-88
2021/09/30 06:50:56;;;;;;;9.15;2.85;;;9.90;97.20;;;;;;5008226;28;20021;-88
2021/09/30 06:53:22;;;;;;;20.33;4.15;;;10.00;97.10;;;;;;5017138;28;20037;-88
2021/09/30 06:55:48;;;;;;;9.82;3.17;;;10.00;97.20;;;;;;5024555;28;20363;-88
2021/09/30 06:58:14;;;;;;;9.02;2.95;;;10.00;97.20;;;;;;5021482;28;20034;-88
2021/09/30 07:00:41;;;;;;;6.32;2.80;;;10.10;97.20;;;;;;5014210;28;20034;-88
2021/09/30 07:03:10;;;;;;;12.23;3.15;;;10.10;97.20;;;;;;5020663;28;20041;-88
2021/09/30 07:05:36;;;;;;;6.30;2.65;;;10.20;97.20;;;;;;5019923;28;20029;-88
2021/09/30 07:08:04;;;;;;;7.97;2.95;;;10.20;97.30;;;;;;5001443;28;20124;-88
2021/09/30 07:10:30;;;;;;;8.63;3.05;;;10.20;97.20;;;;;;5009654;28;20021;-88
2021/09/30 07:12:56;;;;;;;5.70;2.72;;;10.30;97.20;;;;;;4997389;28;20048;-88
2021/09/30 07:15:21;;;;;;;6.32;2.70;;;10.30;97.20;;;;;;4997675;28;20038;-89
2021/09/30 07:17:47;;;;;;;10.07;2.85;;;10.40;97.20;;;;;;4981305;28;20117;-88
2021/09/30 07:20:13;;;;;;;8.88;2.88;;;10.40;97.10;;;;;;4979869;28;20537;-88
2021/09/30 07:22:39;;;;;;;7.72;2.92;;;10.40;97.00;;;;;;4996349;28;20048;-88
2021/09/30 07:25:05;;;;;;;6.53;2.20;;;10.50;96.90;;;;;;5013209;28;20581;-87
2021/09/30 07:27:31;;;;;;;8.07;2.88;;;10.50;96.90;;;;;;5014654;28;20029;-83
2021/09/30 07:29:57;;;;;;;8.00;2.70;;;10.60;96.90;;;;;;5038932;28;20046;-88
2021/09/30 07:32:24;;;;;;;9.25;2.92;;;10.60;96.80;;;;;;4996467;28;20127;-89
2021/09/30 07:34:54;;;;;;;9.73;3.15;;;10.70;97.00;;;;;;4998495;28;20022;-89
2021/09/30 07:37:19;;;;;;;8.65;3.03;;;10.70;96.80;;;;;;5012259;28;20022;-90
2021/09/30 07:39:45;;;;;;;7.35;2.45;;;10.80;96.80;;;;;;5003490;28;20137;-88
2021/09/30 07:42:11;;;;;;;6.55;2.67;;;10.80;96.70;;;;;;5030684;28;20360;-89
2021/09/30 07:45:04;;;;;;;9.25;2.95;;;10.90;96.60;;;;;;5006159;28;20019;-89
2021/09/30 07:47:32;;;;;;;7.38;2.88;;;10.90;96.30;;;;;;5009068;28;20030;-90
2021/09/30 07:50:07;;;;;;;12.68;2.92;;;11.00;96.10;;;;;;5031080;28;20037;-89
2021/09/30 07:52:33;;;;;;;6.90;2.55;;;11.00;96.00;;;;;;5028279;28;20430;-90
2021/09/30 07:58:25;;;;;;;8.90;2.55;;;11.10;96.10;;;;;;5014446;28;20168;-89
2021/09/30 08:01:15;;;;;;;7.57;2.50;;;11.20;95.80;;;;;;5017669;28;20034;-88
2021/09/30 08:04:04;;;;;;;6.43;2.60;;;11.20;95.70;;;;;;5043478;28;20029;-87
2021/09/30 08:06:48;;;;;;;9.98;2.38;;;11.30;95.80;;;;;;4971608;28;20102;-87
2021/09/30 08:09:14;;;;;;;8.05;3.00;;;11.40;95.50;;;;;;4974143;28;20026;-87
2021/09/30 08:11:47;;;;;;;7.43;2.45;;;11.40;95.60;;;;;;4993106;28;20101;-87
2021/09/30 08:14:30;;;;;;;9.68;2.30;;;11.50;95.40;;;;;;5013994;28;20045;-86
2021/09/30 08:17:01;;;;;;;7.20;2.78;;;11.60;95.20;;;;;;5024218;28;20426;-86
2021/09/30 08:19:31;;;;;;;6.72;2.30;;;11.60;95.30;;;;;;5014638;28;20056;-88
2021/09/30 08:21:56;;;;;;;7.25;2.50;;;11.70;95.40;;;;;;5014141;28;20033;-88
2021/09/30 08:28:36;;;;;;;9.77;2.65;;;11.80;95.60;;;;;;5004555;28;20441;-87
2021/09/30 08:31:13;;;;;;;7.28;2.42;;;11.90;95.30;;;;;;4992062;28;20088;-88
2021/09/30 08:33:55;;;;;;;8.15;2.47;;;11.90;95.10;;;;;;5027815;28;20100;-88
2021/09/30 08:36:21;;;;;;;8.93;2.65;;;12.00;95.20;;;;;;4993265;28;20027;-88
2021/09/30 08:39:17;;;;;;;8.10;2.60;;;12.00;95.20;;;;;;5010048;28;20070;-88
2021/09/30 08:41:45;;;;;;;10.80;2.88;;;12.10;94.80;;;;;;4994337;28;20027;-87
2021/09/30 08:44:14;;;;;;;7.25;2.53;;;12.20;95.10;;;;;;4996912;28;20034;-88
2021/09/30 08:46:46;;;;;;;8.20;3.10;;;12.30;94.50;;;;;;5013769;28;20081;-89
2021/09/30 08:49:12;;;;;;;10.93;2.60;;;12.40;94.60;;;;;;5037907;28;20105;-87
2021/09/30 08:51:46;;;;;;;12.00;2.45;;;12.50;94.30;;;;;;4999374;28;20088;-88
2021/09/30 08:54:14;;;;;;;11.02;2.50;;;12.50;93.80;;;;;;5032849;28;20393;-88
2021/09/30 08:56:54;;;;;;;8.93;2.90;;;12.60;94.20;;;;;;5017210;28;20694;-88
2021/09/30 08:59:28;;;;;;;5.82;2.50;;;12.70;93.50;;;;;;5032605;28;20187;-87
2021/09/30 09:02:15;;;;;;;8.45;2.58;;;12.70;93.80;;;;;;5020136;28;20022;-91
2021/09/30 09:05:06;;;;;;;5.80;2.03;;;12.70;93.80;;;;;;5014793;28;20418;-91
2021/09/30 09:07:38;;;;;;;6.07;2.47;;;12.80;94.00;;;;;;5014834;28;20105;-91
2021/09/30 09:10:09;;;;;;;12.68;2.30;;;12.90;94.00;;;;;;4996627;28;20053;-89
2021/09/30 09:12:39;;;;;;;7.32;2.10;;;12.90;93.10;;;;;;4997574;28;20028;-89
2021/09/30 09:15:06;;;;;;;9.07;2.47;;;13.00;93.10;;;;;;4998700;28;20038;-85
2021/09/30 09:17:32;;;;;;;6.43;2.45;;;13.00;93.00;;;;;;4998591;28;20029;-90
2021/09/30 09:20:05;;;;;;;6.55;2.25;;;13.10;93.30;;;;;;5006880;28;20050;-90
2021/09/30 09:22:41;;;;;;;5.57;2.00;;;13.20;93.60;;;;;;4994836;28;20468;-90
2021/09/30 09:25:10;;;;;;;7.53;1.95;;;13.30;93.50;;;;;;4994431;28;20045;-90
2021/09/30 09:27:48;;;;;;;9.77;2.80;;;13.40;93.60;;;;;;5013078;28;20018;-86
2021/09/30 09:30:41;;;;;;;3.90;1.70;;;13.50;93.30;;;;;;5006137;28;20081;-85
2021/09/30 09:33:23;;;;;;;8.52;2.00;;;13.50;93.40;;;;;;5007877;28;20034;-84
2021/09/30 09:36:13;;;;;;;8.07;1.80;;;13.60;92.80;;;;;;5007334;28;20049;-84
2021/09/30 09:38:46;;;;;;;5.37;1.60;;;13.70;93.10;;;;;;5008556;28;20025;-84
2021/09/30 09:41:35;;;;;;;9.80;2.35;;;13.80;93.10;;;;;;4993338;28;20471;-85
2021/09/30 09:44:04;;;;;;;6.43;2.10;;;13.90;93.20;;;;;;5003876;28;20026;-85
2021/09/30 09:46:36;;;;;;;8.50;2.65;;;13.90;91.60;;;;;;5011934;28;20045;-85
2021/09/30 09:49:22;;;;;;;6.50;1.95;;;14.00;92.40;;;;;;4992389;28;20030;-84
2021/09/30 09:52:07;;;;;;;8.95;2.20;;;14.10;92.30;;;;;;5006291;28;20023;-88
2021/09/30 09:54:35;;;;;;;5.15;2.38;;;14.20;92.00;;;;;;4985067;28;20105;-88
2021/09/30 09:57:18;;;;;;;6.72;1.77;;;14.20;91.70;;;;;;4981692;28;20026;-90
2021/09/30 09:59:54;;;;;;;6.70;1.90;;;14.30;91.20;;;;;;4988823;28;20027;-87
2021/09/30 10:02:31;;;;;;;10.43;1.88;;;14.40;90.90;;;;;;4996948;28;20030;-87
2021/09/30 10:05:10;;;;;;;10.73;2.75;;;14.40;90.60;;;;;;4996161;28;20022;-85
2021/09/30 10:08:10;;;;;;;6.60;1.85;;;14.60;91.10;;;;;;5016724;28;20085;-85
2021/09/30 10:10:37;;;;;;;6.45;1.92;;;14.60;90.80;;;;;;4987959;28;20061;-84
2021/09/30 10:13:09;;;;;;;5.35;1.58;;;14.70;88.80;;;;;;5012392;28;20030;-84
2021/09/30 10:15:44;;;;;;;7.07;1.85;;;14.80;90.00;;;;;;4995922;28;20034;-84
2021/09/30 10:18:28;;;;;;;9.10;2.00;;;14.90;89.90;;;;;;4999413;28;20022;-85
2021/09/30 10:21:00;;;;;;;8.82;1.98;;;15.00;86.90;;;;;;5030640;28;20038;-85
2021/09/30 10:23:52;;;;;;;5.13;1.60;;;15.00;87.90;;;;;;5014093;28;20045;-84
2021/09/30 10:26:32;;;;;;;5.93;1.85;;;15.10;88.50;;;;;;5013418;28;20030;-84
2021/09/30 10:29:45;;;;;;;5.95;1.83;;;15.20;87.60;;;;;;5010687;28;20100;-85
2021/09/30 10:32:40;;;;;;;6.80;1.58;;;15.30;87.30;;;;;;5000373;28;20122;-85
2021/09/30 10:35:52;;;;;;;7.10;1.80;;;15.40;88.70;;;;;;4982734;28;20046;-85
2021/09/30 10:38:54;;;;;;;5.93;1.38;;;15.40;86.70;;;;;;4998274;28;20125;-84
2021/09/30 10:41:55;;;;;;;8.23;1.60;;;15.50;85.80;;;;;;5000064;28;20092;-85
2021/09/30 10:44:37;;;;;;;7.70;2.20;;;15.60;83.80;;;;;;4989598;28;20139;-85
2021/09/30 10:47:21;;;;;;;5.75;1.67;;;15.60;82.40;;;;;;4989754;28;20627;-84
2021/09/30 10:50:43;;;;;;;7.28;1.70;;;15.50;84.30;;;;;;4976357;28;20036;-84
2021/09/30 10:53:10;;;;;;;8.88;1.75;;;15.60;84.10;;;;;;4976860;28;20046;-84
2021/09/30 10:55:38;;;;;;;7.43;1.58;;;15.60;84.10;;;;;;4944572;28;20046;-84
2021/09/30 10:58:51;;;;;;;6.80;1.40;;;15.60;84.10;;;;;;4942216;28;20388;-85
2021/09/30 11:01:25;;;;;;;7.50;1.50;;;15.60;82.30;;;;;;4993147;28;20039;-85
2021/09/30 11:04:09;;;;;;;6.05;1.30;;;15.60;80.80;;;;;;4964171;28;20030;-83
2021/09/30 11:06:41;;;;;;;7.05;1.77;;;15.60;80.40;;;;;;4976576;28;20432;-85
2021/09/30 11:09:14;;;;;;;4.95;1.60;;;15.60;79.40;;;;;;4992690;28;20084;-85
2021/09/30 11:12:15;;;;;;;5.13;1.35;;;15.60;80.40;;;;;;4953484;28;20610;-85
2021/09/30 11:15:05;;;;;;;5.35;1.58;;;15.60;80.80;;;;;;4940176;28;20023;-85
2021/09/30 11:17:41;;;;;;;8.27;1.50;;;15.70;80.40;;;;;;4982962;28;20030;-86
2021/09/30 11:20:32;;;;;;;7.75;1.40;;;15.70;82.20;;;;;;4972937;28;20467;-87
2021/09/30 11:23:00;;;;;;;6.03;1.40;;;15.80;81.30;;;;;;4978447;28;20043;-85
2021/09/30 11:26:22;;;;;;;7.18;1.58;;;15.90;81.60;;;;;;4975363;28;20098;-86
2021/09/30 11:28:48;;;;;;;6.00;1.35;;;16.00;79.20;;;;;;4938669;28;20030;-86
2021/09/30 11:31:31;;;;;;;6.63;1.20;;;16.00;80.20;;;;;;4978687;28;20391;-86
2021/09/30 11:34:05;;;;;;;7.38;1.60;;;16.00;78.80;;;;;;4950478;28;20042;-86
2021/09/30 11:36:42;;;;;;;7.18;1.80;;;16.10;78.10;;;;;;4954148;28;20050;-86
2021/09/30 11:39:38;;;;;;;6.22;1.50;;;16.00;77.80;;;;;;4941097;29;20083;-87
2021/09/30 11:42:32;;;;;;;8.15;1.50;;;16.00;77.00;;;;;;4928279;29;20114;-85
2021/09/30 11:45:31;;;;;;;5.93;1.65;;;16.00;78.30;;;;;;4937283;29;20142;-85
2021/09/30 11:48:30;;;;;;;5.15;1.30;;;16.00;79.50;;;;;;4894096;29;20037;-86
2021/09/30 11:51:01;;;;;;;7.18;1.80;;;16.00;78.10;;;;;;4907550;29;20069;-87
2021/09/30 11:53:45;;;;;;;9.00;1.50;;;16.00;78.50;;;;;;4921375;29;20039;-86
2021/09/30 11:56:41;;;;;;;5.82;1.52;;;16.00;79.70;;;;;;4947498;29;20393;-85
2021/09/30 11:59:18;;;;;;;4.80;1.38;;;16.10;76.80;;;;;;4979775;28;20062;-85
2021/09/30 12:02:05;;;;;;;3.80;1.15;;;16.20;76.50;;;;;;5026797;28;20037;-85
2021/09/30 12:04:47;;;;;;;8.52;2.15;;;16.20;75.50;;;;;;4970821;28;20131;-86
2021/09/30 12:07:54;;;;;;;4.60;1.10;;;16.20;75.60;;;;;;4991156;28;20587;-85
2021/09/30 12:10:27;;;;;;;5.15;1.40;;;16.20;77.00;;;;;;4978811;28;20100;-84
2021/09/30 12:13:30;;;;;;;5.38;1.15;;;16.30;76.50;;;;;;4976077;28;20046;-84
2021/09/30 12:16:06;;;;;;;4.57;1.40;;;16.20;76.10;;;;;;4992292;28;20109;-84
2021/09/30 12:19:06;;;;;;;8.23;1.60;;;16.20;77.40;;;;;;4992430;28;20038;-85
2021/09/30 12:21:41;;;;;;;6.03;1.73;;;16.20;75.00;;;;;;5002735;23;20042;-84
2021/09/30 12:24:20;;;;;;;5.03;1.20;;;16.20;74.90;;;;;;4962888;28;20096;-85
2021/09/30 12:27:14;;;;;;;4.50;1.20;;;16.20;77.00;;;;;;4995680;28;20024;-84
2021/09/30 12:30:47;;;;;;;3.35;1.00;;;16.20;74.10;;;;;;5012848;28;20485;-84
2021/09/30 12:33:29;;;;;;;7.60;1.30;;;16.20;74.50;;;;;;4895095;29;20278;-84
2021/09/30 12:36:06;;;;;;;14.88;1.85;;;16.20;75.40;;;;;;4866973;29;20088;-85
2021/09/30 12:38:39;;;;;;;4.88;1.40;;;16.20;75.10;;;;;;4935943;29;20539;-84
2021/09/30 12:41:05;;;;;;;5.28;1.45;;;16.20;73.40;;;;;;4947538;28;20039;-84
2021/09/30 12:43:38;;;;;;;3.83;1.00;;;16.20;75.60;;;;;;4951798;29;20039;-84
2021/09/30 12:46:17;;;;;;;5.05;1.17;;;16.20;75.00;;;;;;4914150;29;20530;-85
2021/09/30 12:49:02;;;;;;;6.63;1.30;;;16.20;77.60;;;;;;4897959;29;20107;-85
2021/09/30 12:51:38;;;;;;;4.47;1.13;;;16.30;78.00;;;;;;4914452;29;20093;-84
2021/09/30 12:54:05;;;;;;;4.85;1.10;;;16.40;75.10;;;;;;4898313;29;20040;-84
2021/09/30 12:56:40;;;;;;;6.25;1.42;;;16.40;75.10;;;;;;4913627;29;20116;-84
2021/09/30 13:02:19;;;;;;;5.63;1.58;;;16.40;76.10;;;;;;4914317;29;20524;-83
2021/09/30 13:05:04;;;;;;;3.55;0.90;;;16.40;75.30;;;;;;4908848;29;20039;-84
2021/09/30 13:07:57;;;;;;;7.38;1.42;;;16.40;76.50;;;;;;4913666;29;20445;-83
2021/09/30 13:10:46;;;;;;;7.13;1.70;;;16.40;78.20;;;;;;4929756;29;20067;-83
2021/09/30 13:13:30;;;;;;;7.22;1.15;;;16.40;78.20;;;;;;4892643;29;20074;-83
2021/09/30 13:16:27;;;;;;;4.88;1.45;;;16.40;75.80;;;;;;4936718;28;20499;-84
2021/09/30 13:18:53;;;;;;;4.60;1.45;;;16.40;78.50;;;;;;4969693;28;20480;-83
2021/09/30 13:22:03;;;;;;;;;;;;;;;;;;;;;
2021/09/30 13:24:45;;;;;;;8.80;2.33;;;16.40;76.40;;;;;;4961968;28;20035;-85
2021/09/30 13:27:40;;;;;;;5.00;1.40;;;16.40;77.30;;;;;;4970327;28;20022;-84
2021/09/30 13:30:56;;;;;;;4.55;1.58;;;16.40;78.30;;;;;;4951802;28;20039;-85
2021/09/30 13:33:21;;;;;;;8.05;1.85;;;16.40;76.20;;;;;;4978294;28;20042;-84
2021/09/30 13:35:50;;;;;;;5.82;1.55;;;16.40;77.00;;;;;;4962738;28;20049;-84
2021/09/30 13:38:24;;;;;;;3.88;1.13;;;16.40;77.80;;;;;;4958284;28;20073;-84
2021/09/30 13:41:05;;;;;;;6.82;1.98;;;16.40;77.80;;;;;;4962375;28;20045;-86
2021/09/30 13:43:30;;;;;;;5.43;1.45;;;16.40;78.80;;;;;;4948144;28;20071;-86
2021/09/30 13:46:05;;;;;;;5.80;1.50;;;16.40;78.60;;;;;;4942734;28;20034;-85
2021/09/30 13:48:56;;;;;;;7.72;1.70;;;16.40;76.70;;;;;;4961173;28;20031;-86
2021/09/30 13:52:18;;;;;;;;;;;;;;;;;;;;;
2021/09/30 13:54:44;;;;;;;9.00;2.13;;;16.30;77.60;;;;;;4929967;29;20038;-86
2021/09/30 13:57:22;;;;;;;5.38;1.55;;;16.30;78.00;;;;;;4936516;29;20123;-86
2021/09/30 13:59:47;;;;;;;5.70;1.60;;;16.30;78.90;;;;;;4936026;29;20032;-87
2021/09/30 14:02:23;;;;;;;7.90;2.28;;;16.20;78.40;;;;;;4920184;29;20138;-87
2021/09/30 14:04:49;;;;;;;9.80;2.08;;;16.30;78.10;;;;;;4917429;29;20138;-87
2021/09/30 14:07:21;;;;;;;5.90;1.42;;;16.20;77.60;;;;;;4933928;29;20118;-87
2021/09/30 14:09:48;;;;;;;7.70;1.63;;;16.20;78.50;;;;;;4921737;29;20032;-86
2021/09/30 14:12:37;;;;;;;6.57;1.58;;;16.20;80.00;;;;;;4972782;28;20498;-87
2021/09/30 14:15:06;;;;;;;8.18;2.05;;;16.20;79.40;;;;;;5012768;28;20027;-87
2021/09/30 14:18:05;;;;;;;5.90;1.58;;;16.20;78.60;;;;;;4974599;28;20031;-87
2021/09/30 14:20:44;;;;;;;5.97;2.10;;;16.20;79.40;;;;;;4948005;28;20038;-87
2021/09/30 14:23:09;;;;;;;7.82;1.85;;;16.10;77.00;;;;;;4964329;28;20505;-86
2021/09/30 14:26:30;;;;;;;7.65;2.55;;;16.10;78.60;;;;;;4972792;28;20035;-87
2021/09/30 14:32:05;;;;;;;7.82;2.25;;;16.00;79.50;;;;;;4939601;28;20054;-86
2021/09/30 14:35:08;;;;;;;12.55;2.63;;;16.00;78.30;;;;;;4958209;28;20027;-83
2021/09/30 14:37:40;;;;;;;8.38;2.15;;;16.00;78.30;;;;;;4933101;28;20060;-84
2021/09/30 14:40:06;;;;;;;6.38;1.90;;;16.00;80.30;;;;;;4953090;28;20035;-84
2021/09/30 14:42:38;;;;;;;9.32;2.53;;;16.00;81.20;;;;;;4943109;28;20133;-84
2021/09/30 14:45:13;;;;;;;6.68;1.85;;;16.00;81.30;;;;;;4981338;28;20049;-84
2021/09/30 14:47:41;;;;;;;7.93;2.40;;;16.10;80.30;;;;;;4946076;28;21087;-84
2021/09/30 14:50:12;;;;;;;5.88;2.22;;;16.10;79.50;;;;;;4947011;28;20031;-84
2021/09/30 14:53:03;;;;;;;7.70;1.73;;;16.10;78.30;;;;;;4966565;28;20026;-84
2021/09/30 14:55:54;;;;;;;;;;;16.00;80.30;;;;;;4961554;28;20400;-84
2021/09/30 14:58:23;;;;;;;8.02;1.75;;;16.00;79.00;;;;;;4974616;28;19922;-84
2021/09/30 15:00:58;;;;;;;8.35;2.03;;;16.00;79.50;;;;;;4960937;28;20042;-84
2021/09/30 15:03:50;;;;;;;7.20;1.80;;;16.00;79.20;;;;;;4974420;28;20030;-86
2021/09/30 15:06:39;;;;;;;7.38;1.63;;;15.90;78.40;;;;;;4965368;28;20408;-86
2021/09/30 15:09:05;;;;;;;6.13;1.38;;;15.90;80.00;;;;;;4995752;28;20022;-84
2021/09/30 15:11:40;;;;;;;6.28;1.70;;;16.00;80.60;;;;;;4977148;28;20049;-84
2021/09/30 15:14:14;;;;;;;8.52;1.95;;;16.00;80.90;;;;;;4973265;28;20495;-84
2021/09/30 15:17:10;;;;;;;8.40;2.05;;;16.00;80.30;;;;;;4992372;28;20022;-84
2021/09/30 15:22:47;;;;;;;7.53;1.75;;;16.00;79.60;;;;;;4918611;29;20119;-84
2021/09/30 15:25:18;;;;;;;6.28;1.67;;;15.90;79.00;;;;;;4917890;29;20040;-84
2021/09/30 15:28:03;;;;;;;8.25;1.85;;;15.80;79.60;;;;;;4931649;29;20036;-84
2021/09/30 15:30:40;;;;;;;5.85;1.38;;;15.80;80.50;;;;;;4934477;29;20035;-84
2021/09/30 15:33:18;;;;;;;6.03;2.10;;;15.80;80.50;;;;;;4933018;29;20552;-84
2021/09/30 15:35:55;;;;;;;4.88;1.30;;;15.80;80.70;;;;;;4935861;29;20031;-84
2021/09/30 15:38:30;;;;;;;9.95;1.95;;;15.80;81.20;;;;;;4914374;29;20051;-85
2021/09/30 15:41:22;;;;;;;3.85;1.40;;;15.80;81.90;;;;;;4930424;29;20040;-85
2021/09/30 15:44:09;;;;;;;5.95;1.40;;;15.70;81.30;;;;;;4905236;29;20037;-84
2021/09/30 15:46:38;;;;;;;5.63;1.40;;;15.70;80.90;;;;;;4918316;29;20036;-84
2021/09/30 15:49:05;;;;;;;7.18;1.73;;;15.70;81.70;;;;;;4902802;29;20036;-84
2021/09/30 15:51:33;;;;;;;6.32;1.92;;;15.60;82.10;;;;;;4914421;29;20162;-85
2021/09/30 15:54:11;;;;;;;5.25;1.13;;;15.60;83.20;;;;;;4895870;29;20506;-85
2021/09/30 15:57:06;;;;;;;7.10;1.90;;;15.60;82.70;;;;;;4913904;29;20031;-85
2021/09/30 15:59:35;;;;;;;4.82;1.33;;;15.60;82.20;;;;;;4936657;29;20043;-84
2021/09/30 16:02:03;;;;;;;6.18;1.92;;;15.60;82.80;;;;;;4953482;28;20031;-84
2021/09/30 16:04:29;;;;;;;4.03;1.50;;;15.60;82.60;;;;;;4937067;29;20396;-84
2021/09/30 16:07:20;;;;;;;6.07;1.27;;;15.60;83.30;;;;;;4921078;29;20034;-84
2021/09/30 16:09:48;;;;;;;6.22;1.33;;;15.60;82.10;;;;;;4978942;28;20472;-84
2021/09/30 16:12:17;;;;;;;5.68;1.60;;;15.50;82.90;;;;;;4961615;28;20110;-84
2021/09/30 16:14:51;;;;;;;5.35;1.50;;;15.50;82.90;;;;;;4956082;28;20022;-85
2021/09/30 16:17:29;;;;;;;6.15;1.67;;;15.60;83.30;;;;;;4932318;29;20434;-84
2021/09/30 16:19:57;;;;;;;7.55;1.50;;;15.60;83.40;;;;;;4903146;29;20118;-84
2021/09/30 16:22:27;;;;;;;4.50;1.45;;;15.50;83.20;;;;;;4901373;28;20070;-84
2021/09/30 16:24:53;;;;;;;4.82;1.27;;;15.50;82.20;;;;;;4936724;29;20113;-84
2021/09/30 16:27:42;;;;;;;5.13;1.52;;;15.50;82.90;;;;;;4920545;29;20035;-85
2021/09/30 16:30:13;;;;;;;6.95;2.00;;;15.50;83.30;;;;;;4952692;29;20046;-85
2021/09/30 16:32:50;;;;;;;;;;;15.50;83.20;;;;;;4921104;29;20097;-85